Fort Wayne, Indiana
Current Conditions -  °F | °C
As of 10:54 AM on Monday 24 Nov 2014 (Local Time) from KFWA Reporting Station
Overcast Overcast  
Wind Chill: 37°   Ceiling: 1100
Heat Index: 46°   Visibility: 10mi
Dew Point: 43°   Wind: 26mph
Humidity: 89%   Direction: 230°SW
Pressure: 29.26"   Gusts: 44mph
Location:  41.08°N, 85.1°W
Report Text: KFWA 241554Z 23023G38KT 10SM OVC011 08/06 A2926 RMK AO2 PK WND 22050/1509 RAB17E28 PRESRR SLP908 P0000 T00780061
Loading
Personal Weather Stations






























Interactive Weather Map New forecast layout! Learn more

10-Day Weather Forecast

Advertisements
Track Severe Weather on mobile